createdAt,value
2023-04-18T00:04:42.974Z,54.91
2023-04-18T00:07:47.269Z,55.10
2023-04-18T00:10:50.491Z,55.32
2023-04-18T00:13:54.561Z,55.34
2023-04-18T00:16:57.871Z,55.39
2023-04-18T00:20:07.394Z,55.12
2023-04-18T00:23:14.300Z,55.28
2023-04-18T00:26:17.679Z,55.12
2023-04-18T00:29:21.481Z,55.02
2023-04-18T00:32:24.707Z,54.89
2023-04-18T00:35:28.061Z,54.68
2023-04-18T00:38:31.374Z,54.68
2023-04-18T00:41:34.778Z,54.61
2023-04-18T00:44:38.887Z,54.37
2023-04-18T00:47:42.328Z,54.30
2023-04-18T00:50:47.450Z,54.20
2023-04-18T00:53:51.666Z,54.10
2023-04-18T00:56:55.156Z,54.11
2023-04-18T01:00:01.459Z,53.98
2023-04-18T01:03:08.629Z,53.95
2023-04-18T01:06:12.508Z,54.03
2023-04-18T01:09:16.439Z,54.02
2023-04-18T01:12:23.610Z,54.04
2023-04-18T01:15:27.230Z,54.04
2023-04-18T01:18:32.777Z,54.07
2023-04-18T01:21:44.081Z,54.17
2023-04-18T01:24:49.391Z,54.26
2023-04-18T01:27:54.588Z,54.29
2023-04-18T01:31:00.106Z,54.39
2023-04-18T01:34:05.243Z,54.38
2023-04-18T01:37:08.730Z,54.47
2023-04-18T01:40:12.546Z,54.40
2023-04-18T01:43:17.163Z,54.48
2023-04-18T01:46:20.834Z,54.59
2023-04-18T01:49:24.184Z,54.68
2023-04-18T01:52:28.095Z,54.79
2023-04-18T01:55:31.390Z,54.90
2023-04-18T01:58:36.820Z,55.19
2023-04-18T02:04:42.086Z,55.58
2023-04-18T02:07:47.840Z,55.53
2023-04-18T02:10:51.338Z,55.82
2023-04-18T02:13:54.956Z,55.79
2023-04-18T02:16:59.570Z,56.00
2023-04-18T02:20:02.979Z,56.09
2023-04-18T02:23:07.997Z,56.28
2023-04-18T02:26:11.326Z,56.33
2023-04-18T02:29:14.713Z,56.57
2023-04-18T02:32:18.036Z,56.70
2023-04-18T02:35:23.158Z,56.84
2023-04-18T02:38:28.596Z,56.96
2023-04-18T02:41:35.134Z,57.14
2023-04-18T02:44:38.336Z,57.16
2023-04-18T02:47:53.815Z,57.23
2023-04-18T02:51:07.925Z,57.26
2023-04-18T02:54:12.745Z,57.38
2023-04-18T02:57:26.986Z,57.49
2023-04-18T03:00:36.530Z,57.67
2023-04-18T03:03:59.482Z,57.58
2023-04-18T03:07:10.075Z,57.56
2023-04-18T03:10:15.679Z,57.64
2023-04-18T03:13:19.114Z,57.50
2023-04-18T03:16:23.169Z,57.64
2023-04-18T03:19:27.225Z,57.70
2023-04-18T03:22:31.238Z,57.82
2023-04-18T03:25:35.789Z,57.87
2023-04-18T03:28:40.319Z,57.93
2023-04-18T03:31:44.254Z,57.99
2023-04-18T03:34:47.707Z,58.06
2023-04-18T03:37:51.218Z,58.26
2023-04-18T03:41:01.059Z,58.20
2023-04-18T03:44:09.476Z,58.06
2023-04-18T03:47:15.023Z,58.21
2023-04-18T03:50:19.762Z,58.35
2023-04-18T03:53:24.592Z,58.42
2023-04-18T03:56:27.887Z,58.38
2023-04-18T03:59:33.442Z,58.45
2023-04-18T04:05:03.203Z,58.62
2023-04-18T04:08:06.372Z,58.52
2023-04-18T04:11:09.236Z,58.54
2023-04-18T04:14:12.148Z,58.52
2023-04-18T04:17:17.919Z,58.61
2023-04-18T04:20:24.368Z,58.72
2023-04-18T04:23:33.738Z,58.70
2023-04-18T04:26:36.495Z,58.57
2023-04-18T04:29:44.187Z,58.47
2023-04-18T04:32:47.948Z,58.32
2023-04-18T04:35:52.009Z,58.17
2023-04-18T04:38:55.098Z,58.19
2023-04-18T04:42:05.058Z,58.07
2023-04-18T04:45:14.854Z,57.75
2023-04-18T04:48:18.399Z,57.73
2023-04-18T04:51:20.569Z,57.59
2023-04-18T04:54:24.321Z,57.47
2023-04-18T04:57:26.837Z,57.39
2023-04-18T05:00:29.048Z,57.33
2023-04-18T05:03:32.771Z,57.45
2023-04-18T05:06:35.005Z,57.79
2023-04-18T05:09:36.974Z,58.07
2023-04-18T05:12:39.048Z,58.41
2023-04-18T05:15:43.487Z,58.84
2023-04-18T05:18:45.962Z,59.10
2023-04-18T05:21:48.119Z,59.39
2023-04-18T05:24:50.290Z,59.40
2023-04-18T05:27:52.542Z,59.10
2023-04-18T05:31:00.692Z,58.66
2023-04-18T05:34:02.837Z,58.19
2023-04-18T05:37:04.912Z,57.66
2023-04-18T05:40:08.570Z,57.10
2023-04-18T05:43:11.823Z,56.68
2023-04-18T05:46:13.898Z,56.16
2023-04-18T05:49:15.982Z,55.72
2023-04-18T05:52:17.911Z,55.29
2023-04-18T05:55:20.187Z,54.96
2023-04-18T05:58:24.170Z,54.75
2023-04-18T06:04:44.282Z,53.88
2023-04-18T06:07:49.160Z,53.59
2023-04-18T06:10:52.547Z,53.27
2023-04-18T06:13:56.380Z,52.90
2023-04-18T06:17:00.139Z,52.49
2023-04-18T06:20:06.469Z,52.19
2023-04-18T06:23:10.251Z,51.62
2023-04-18T06:26:14.130Z,51.64
2023-04-18T06:29:18.304Z,51.62
2023-04-18T06:32:21.422Z,50.98
2023-04-18T06:35:26.549Z,50.66
2023-04-18T06:38:29.952Z,50.43
2023-04-18T06:41:33.063Z,50.10
2023-04-18T06:44:36.779Z,49.89
2023-04-18T06:47:40.918Z,49.69
2023-04-18T06:50:44.911Z,49.47
2023-04-18T06:53:48.697Z,49.02
2023-04-18T06:56:53.121Z,48.89
2023-04-18T07:03:50.299Z,48.25
2023-04-18T07:06:54.051Z,47.89
2023-04-18T07:09:57.462Z,47.66
2023-04-18T07:13:00.843Z,47.69
2023-04-18T07:16:04.506Z,47.49
2023-04-18T07:19:08.664Z,47.33
2023-04-18T07:22:12.067Z,47.01
2023-04-18T07:25:15.610Z,46.78
2023-04-18T07:28:19.095Z,46.76
2023-04-18T07:31:23.212Z,46.29
2023-04-18T07:34:29.993Z,46.05
2023-04-18T07:37:33.869Z,46.00
2023-04-18T07:40:37.164Z,46.20
2023-04-18T07:43:40.876Z,45.98
2023-04-18T07:46:44.189Z,46.03
2023-04-18T07:49:48.898Z,45.68
2023-04-18T07:52:52.173Z,45.66
2023-04-18T07:55:56.010Z,45.45
2023-04-18T07:58:59.896Z,45.42
2023-04-18T08:02:03.523Z,45.42
2023-04-18T08:05:07.801Z,45.59
2023-04-18T08:08:12.377Z,45.58
2023-04-18T08:11:15.565Z,45.55
2023-04-18T08:14:18.868Z,45.31
2023-04-18T08:17:23.695Z,45.20
2023-04-18T08:20:27.503Z,44.60
2023-04-18T08:23:30.947Z,44.27
2023-04-18T08:26:34.232Z,44.15
2023-04-18T08:29:37.913Z,44.33
2023-04-18T08:32:41.357Z,43.79
2023-04-18T08:35:44.826Z,43.53
2023-04-18T08:38:48.148Z,43.05
2023-04-18T08:41:57.548Z,42.79
2023-04-18T08:45:01.052Z,42.68
2023-04-18T08:48:04.838Z,42.13
2023-04-18T08:51:08.197Z,41.60
2023-04-18T08:54:12.490Z,41.49
2023-04-18T08:57:17.082Z,41.12
2023-04-18T09:00:20.840Z,40.55
2023-04-18T09:03:40.806Z,40.32
2023-04-18T09:06:53.141Z,40.32
2023-04-18T09:09:57.522Z,40.59
2023-04-18T09:13:03.946Z,40.29
2023-04-18T09:16:08.160Z,40.45
2023-04-18T09:19:18.151Z,40.17
2023-04-18T09:22:22.057Z,39.64
2023-04-18T09:25:45.443Z,39.49
2023-04-18T09:28:53.958Z,39.93
2023-04-18T09:32:02.703Z,40.08
2023-04-18T09:35:06.410Z,39.68
2023-04-18T09:38:10.826Z,39.29
2023-04-18T09:41:20.078Z,38.68
2023-04-18T09:44:24.806Z,38.57
2023-04-18T09:47:28.764Z,38.63
2023-04-18T09:50:33.331Z,38.58
2023-04-18T09:53:42.351Z,38.98
2023-04-18T09:56:46.773Z,39.23
2023-04-18T09:59:59.915Z,39.35
2023-04-18T10:04:47.478Z,40.26
2023-04-18T10:07:51.693Z,40.22
2023-04-18T10:10:56.795Z,40.19
2023-04-18T10:14:04.606Z,40.38
2023-04-18T10:17:10.175Z,40.52
2023-04-18T10:20:20.504Z,40.71
2023-04-18T10:23:35.831Z,40.61
2023-04-18T10:26:50.507Z,40.74
2023-04-18T10:29:56.426Z,40.71
2023-04-18T10:33:29.958Z,40.90
2023-04-18T10:36:36.416Z,40.02
2023-04-18T10:40:00.645Z,39.83
2023-04-18T10:43:07.164Z,39.83
2023-04-18T10:46:23.804Z,39.46
2023-04-18T10:49:34.055Z,38.13
2023-04-18T10:52:38.877Z,37.51
2023-04-18T10:55:53.533Z,37.00
2023-04-18T10:59:02.155Z,37.26
2023-04-18T11:02:32.722Z,37.71
2023-04-18T11:05:36.195Z,37.84
2023-04-18T11:08:40.100Z,38.45
2023-04-18T11:11:44.462Z,39.00
2023-04-18T11:14:50.078Z,39.36
2023-04-18T11:18:04.710Z,40.21
2023-04-18T11:21:08.181Z,41.56
2023-04-18T11:24:11.672Z,42.59
2023-04-18T11:27:16.301Z,43.21
2023-04-18T11:30:19.596Z,43.71
2023-04-18T11:33:27.741Z,44.59
2023-04-18T11:36:32.917Z,45.85
2023-04-18T11:39:43.291Z,46.43
2023-04-18T11:42:47.705Z,46.57
2023-04-18T11:45:59.782Z,47.06
2023-04-18T11:49:03.317Z,47.72
2023-04-18T11:52:13.667Z,48.44
2023-04-18T11:55:21.509Z,49.10
2023-04-18T11:58:32.050Z,49.63
2023-04-18T12:01:35.352Z,50.08
2023-04-18T12:05:00.160Z,51.13
2023-04-18T12:08:07.327Z,51.84
2023-04-18T12:11:19.750Z,53.51
2023-04-18T12:14:23.268Z,54.81
2023-04-18T12:17:27.825Z,56.27
2023-04-18T12:20:48.691Z,58.24
2023-04-18T12:23:52.013Z,60.44
2023-04-18T12:26:58.966Z,62.74
2023-04-18T12:30:02.362Z,64.88
2023-04-18T12:33:06.984Z,66.93
2023-04-18T12:36:11.322Z,68.51
2023-04-18T12:39:14.599Z,69.85
2023-04-18T12:42:18.216Z,72.15
2023-04-18T12:45:22.997Z,74.44
2023-04-18T13:02:15.779Z,97.42
2023-04-18T13:05:21.652Z,99.82
2023-04-18T13:08:23.631Z,100.00
2023-04-18T13:11:28.125Z,100.00
2023-04-18T13:14:30.126Z,100.00
2023-04-18T13:17:33.342Z,100.00
2023-04-18T13:20:36.122Z,100.00
2023-04-18T13:23:38.357Z,100.00
2023-04-18T13:26:40.321Z,100.00
2023-04-18T13:29:43.408Z,100.00
2023-04-18T13:32:45.829Z,100.00
2023-04-18T13:35:48.049Z,100.00
2023-04-18T13:38:51.321Z,100.00
2023-04-18T13:55:41.955Z,100.00
2023-04-18T13:58:44.028Z,100.00
2023-04-18T14:04:42.194Z,100.00
2023-04-18T14:07:45.804Z,100.00
2023-04-18T14:10:49.104Z,100.00
2023-04-18T14:13:53.941Z,100.00
2023-04-18T14:16:57.551Z,100.00
2023-04-18T14:20:01.680Z,100.00
2023-04-18T14:23:04.956Z,100.00
2023-04-18T14:26:08.977Z,100.00
2023-04-18T14:29:14.623Z,100.00
2023-04-18T14:32:19.373Z,100.00
2023-04-18T14:35:22.570Z,100.00
2023-04-18T14:38:26.560Z,100.00
2023-04-18T14:41:29.779Z,100.00
2023-04-18T14:44:33.562Z,100.00
2023-04-18T14:47:39.263Z,100.00
2023-04-18T14:50:43.929Z,100.00
2023-04-18T14:53:47.159Z,100.00
2023-04-18T14:56:51.580Z,99.90
2023-04-18T14:59:55.267Z,97.11
2023-04-18T15:03:01.259Z,93.90
2023-04-18T15:06:04.962Z,91.55
2023-04-18T15:09:09.273Z,88.92
2023-04-18T15:12:12.564Z,88.07
2023-04-18T15:15:16.375Z,87.97
2023-04-18T15:18:20.068Z,87.56
2023-04-18T15:21:23.466Z,86.42
2023-04-18T15:24:26.966Z,86.20
2023-04-18T15:27:30.598Z,86.30
2023-04-18T15:30:34.178Z,86.35
2023-04-18T15:33:37.476Z,85.82
2023-04-18T15:36:41.697Z,84.89
2023-04-18T15:39:45.093Z,84.55
2023-04-18T15:42:49.824Z,84.34
2023-04-18T15:45:53.159Z,84.59
2023-04-18T15:48:56.837Z,84.51
2023-04-18T15:52:00.537Z,84.59
2023-04-18T15:55:05.444Z,84.83
2023-04-18T15:58:08.920Z,85.15
2023-04-18T16:01:16.131Z,85.30
2023-04-18T16:04:19.460Z,85.18
2023-04-18T16:07:23.468Z,85.42
2023-04-18T16:10:26.806Z,85.52
2023-04-18T16:13:31.092Z,85.49
2023-04-18T16:16:34.922Z,85.46
2023-04-18T16:19:41.264Z,85.43
2023-04-18T16:22:47.102Z,84.94
2023-04-18T16:25:51.441Z,85.10
2023-04-18T16:28:54.950Z,85.38
2023-04-18T16:31:58.458Z,85.65
2023-04-18T16:35:02.305Z,85.78
2023-04-18T16:38:06.376Z,86.19
2023-04-18T16:41:09.703Z,86.25
2023-04-18T16:44:13.402Z,86.36
2023-04-18T16:47:17.728Z,86.05
2023-04-18T16:50:22.837Z,85.72
2023-04-18T16:53:26.349Z,85.47
2023-04-18T16:56:30.090Z,85.29
2023-04-18T16:59:33.455Z,84.76
2023-04-18T17:02:39.779Z,84.31
2023-04-18T17:05:44.776Z,83.68
2023-04-18T17:08:49.207Z,83.24
2023-04-18T17:11:52.514Z,82.67
2023-04-18T17:14:55.890Z,82.21
2023-04-18T17:18:01.526Z,81.75
2023-04-18T17:21:05.259Z,81.59
2023-04-18T17:24:09.331Z,81.59
2023-04-18T17:40:42.851Z,82.00
2023-04-18T17:43:47.200Z,81.75
2023-04-18T17:46:50.714Z,81.50
2023-04-18T17:49:54.943Z,81.27
2023-04-18T17:52:58.249Z,81.16
2023-04-18T17:56:02.160Z,80.84
2023-04-18T17:59:07.587Z,80.79
2023-04-18T18:04:42.421Z,80.86
2023-04-18T18:07:48.745Z,80.45
2023-04-18T18:10:53.535Z,80.02
2023-04-18T18:13:57.638Z,79.97
2023-04-18T18:17:01.156Z,79.60
2023-04-18T18:20:10.628Z,79.13
2023-04-18T18:23:14.242Z,78.84
2023-04-18T18:26:17.569Z,78.61
2023-04-18T18:29:21.345Z,78.40
2023-04-18T18:32:24.879Z,78.35
2023-04-18T18:35:28.271Z,78.19
2023-04-18T18:38:31.653Z,77.93
2023-04-18T18:41:35.051Z,77.50
2023-04-18T18:44:38.569Z,77.40
2023-04-18T18:47:42.030Z,77.26
2023-04-18T18:50:45.578Z,77.11
2023-04-18T18:53:50.928Z,76.75
2023-04-18T18:56:54.310Z,76.41
2023-04-18T18:59:57.988Z,76.32
2023-04-18T19:03:01.822Z,76.18
2023-04-18T19:06:07.425Z,76.03
2023-04-18T19:09:12.041Z,75.80
2023-04-18T19:12:16.125Z,75.64
2023-04-18T19:15:19.933Z,75.37
2023-04-18T19:18:23.725Z,75.15
2023-04-18T19:21:27.630Z,75.01
2023-04-18T19:24:32.257Z,74.90
2023-04-18T19:27:36.185Z,74.97
2023-04-18T19:30:41.673Z,74.96
2023-04-18T19:33:45.021Z,74.95
2023-04-18T19:36:50.206Z,74.99
2023-04-18T19:39:54.378Z,74.97
2023-04-18T19:42:58.561Z,74.89
2023-04-18T19:46:02.325Z,74.87
2023-04-18T19:49:06.486Z,74.89
2023-04-18T19:52:11.460Z,74.91
2023-04-18T19:55:15.095Z,74.98
2023-04-18T19:58:40.005Z,75.12
2023-04-18T20:01:45.518Z,75.07
2023-04-18T20:04:49.923Z,74.94
2023-04-18T20:07:53.591Z,74.88
2023-04-18T20:10:57.051Z,74.55
2023-04-18T20:14:01.115Z,74.28
2023-04-18T20:17:04.768Z,73.85
2023-04-18T20:20:09.483Z,73.46
2023-04-18T20:23:14.669Z,73.09
2023-04-18T20:26:18.129Z,72.87
2023-04-18T20:29:21.548Z,72.59
2023-04-18T20:32:25.304Z,72.31
2023-04-18T20:35:29.925Z,71.94
2023-04-18T20:38:33.578Z,71.56
2023-04-18T20:41:37.291Z,71.25
2023-04-18T20:57:18.252Z,69.08
2023-04-18T21:00:20.323Z,68.39
2023-04-18T21:03:22.480Z,67.76
2023-04-18T21:06:24.547Z,67.22
2023-04-18T21:09:26.520Z,66.88
2023-04-18T21:12:28.891Z,66.71
2023-04-18T21:15:30.855Z,66.65
2023-04-18T21:18:34.050Z,67.79
2023-04-18T21:21:35.992Z,69.78
2023-04-18T21:24:40.041Z,72.00
2023-04-18T21:27:42.009Z,72.71
2023-04-18T21:30:43.904Z,72.57
2023-04-18T21:33:46.045Z,71.83
2023-04-18T21:36:48.012Z,70.53
2023-04-18T21:39:50.295Z,69.84
2023-04-18T21:42:52.240Z,71.09
2023-04-18T21:45:54.355Z,70.38
2023-04-18T21:48:56.473Z,69.59
2023-04-18T21:51:58.555Z,68.91
2023-04-18T21:55:00.605Z,68.59
2023-04-18T21:58:02.576Z,69.07
2023-04-18T22:04:45.417Z,70.06
2023-04-18T22:07:57.584Z,70.45
2023-04-18T22:11:01.707Z,70.71
2023-04-18T22:14:05.342Z,71.00
2023-04-18T22:17:09.564Z,70.75
2023-04-18T22:20:13.180Z,70.77
2023-04-18T22:23:16.658Z,70.72
2023-04-18T22:26:20.813Z,70.16
2023-04-18T22:29:24.093Z,69.76
2023-04-18T22:32:27.446Z,69.26
2023-04-18T22:35:31.088Z,69.01
2023-04-18T22:38:34.386Z,68.85
2023-04-18T22:41:38.210Z,68.65
2023-04-18T22:44:41.597Z,68.71
2023-04-18T22:47:45.143Z,68.50
2023-04-18T22:50:50.125Z,68.32
2023-04-18T22:53:53.337Z,68.23
2023-04-18T22:56:57.079Z,68.58
2023-04-18T23:00:01.573Z,68.79
2023-04-18T23:03:05.776Z,68.81
2023-04-18T23:06:09.305Z,68.83
2023-04-18T23:09:13.016Z,68.94
2023-04-18T23:12:16.607Z,69.04
2023-04-18T23:15:23.091Z,69.21
2023-04-18T23:18:30.189Z,69.34
2023-04-18T23:21:34.183Z,69.58
2023-04-18T23:24:37.566Z,70.40
2023-04-18T23:27:42.325Z,71.79
2023-04-18T23:30:45.709Z,72.31
2023-04-18T23:33:49.322Z,72.56
2023-04-18T23:36:52.644Z,72.59
2023-04-18T23:39:56.008Z,72.73
2023-04-18T23:42:59.308Z,72.85
2023-04-18T23:46:02.972Z,72.70
2023-04-18T23:49:06.623Z,72.53
2023-04-18T23:52:11.021Z,72.87
2023-04-18T23:55:14.330Z,72.69
2023-04-18T23:58:17.967Z,72.31
